createdAt,value
2022-10-02T00:02:06.737Z,15.40
2022-10-02T00:04:40.830Z,15.50
2022-10-02T00:07:12.746Z,15.50
2022-10-02T00:09:46.406Z,15.50
2022-10-02T00:12:19.594Z,15.40
2022-10-02T00:14:49.862Z,15.50
2022-10-02T00:17:22.377Z,15.50
2022-10-02T00:19:55.082Z,15.50
2022-10-02T00:22:35.491Z,15.50
2022-10-02T00:25:14.843Z,15.50
2022-10-02T00:28:02.250Z,15.50
2022-10-02T00:30:38.222Z,15.60
2022-10-02T00:33:15.296Z,15.50
2022-10-02T00:36:02.354Z,15.60
2022-10-02T00:38:42.113Z,15.60
2022-10-02T00:41:25.223Z,15.70
2022-10-02T00:44:10.649Z,15.70
2022-10-02T00:46:47.340Z,15.60
2022-10-02T00:49:59.635Z,15.90
2022-10-02T00:52:45.387Z,15.90
2022-10-02T00:55:29.891Z,16.00
2022-10-02T00:58:13.260Z,16.00
2022-10-02T01:00:44.494Z,16.10
2022-10-02T01:03:19.208Z,16.10
2022-10-02T01:05:47.643Z,16.20
2022-10-02T01:08:15.589Z,16.20
2022-10-02T01:10:44.426Z,16.40
2022-10-02T01:13:13.976Z,16.30
2022-10-02T01:15:47.641Z,16.30
2022-10-02T01:18:18.452Z,16.40
2022-10-02T01:20:48.372Z,16.50
2022-10-02T01:23:24.529Z,16.40
2022-10-02T01:25:53.999Z,16.50
2022-10-02T01:28:23.353Z,16.40
2022-10-02T01:30:54.692Z,16.40
2022-10-02T01:33:23.506Z,16.40
2022-10-02T01:35:51.805Z,16.40
2022-10-02T01:38:24.693Z,16.30
2022-10-02T01:40:54.355Z,16.40
2022-10-02T01:43:26.759Z,16.30
2022-10-02T01:46:08.901Z,16.40
2022-10-02T01:48:46.760Z,16.30
2022-10-02T01:51:28.655Z,16.30
2022-10-02T01:54:06.194Z,16.30
2022-10-02T01:56:41.119Z,16.30
2022-10-02T01:59:22.025Z,16.30
2022-10-02T02:01:59.297Z,16.30
2022-10-02T02:04:31.033Z,16.30
2022-10-02T02:07:05.329Z,16.30
2022-10-02T02:09:42.211Z,16.30
2022-10-02T02:12:16.510Z,16.30
2022-10-02T02:14:48.997Z,16.30
2022-10-02T02:17:24.772Z,16.30
2022-10-02T02:20:00.938Z,16.20
2022-10-02T02:22:31.445Z,16.20
2022-10-02T02:25:03.586Z,16.20
2022-10-02T02:27:37.070Z,16.20
2022-10-02T02:30:08.694Z,16.20
2022-10-02T02:32:39.941Z,16.20
2022-10-02T02:35:15.102Z,16.20
2022-10-02T02:37:44.905Z,16.20
2022-10-02T02:40:17.161Z,16.30
2022-10-02T02:42:54.375Z,16.20
2022-10-02T02:45:25.515Z,16.20
2022-10-02T02:47:56.194Z,16.20
2022-10-02T02:50:30.400Z,16.20
2022-10-02T02:53:03.028Z,16.30
2022-10-02T02:55:34.707Z,16.20
2022-10-02T02:58:08.901Z,16.30
2022-10-02T03:00:37.016Z,16.40
2022-10-02T03:03:05.390Z,16.30
2022-10-02T03:05:35.379Z,16.30
2022-10-02T03:08:13.296Z,16.30
2022-10-02T03:10:51.175Z,16.20
2022-10-02T03:13:33.163Z,16.20
2022-10-02T03:16:16.946Z,16.20
2022-10-02T03:19:07.437Z,16.20
2022-10-02T03:21:40.980Z,16.20
2022-10-02T03:24:17.849Z,16.10
2022-10-02T03:26:52.517Z,16.10
2022-10-02T03:29:29.397Z,16.10
2022-10-02T03:31:59.700Z,16.00
2022-10-02T03:34:28.030Z,16.00
2022-10-02T03:36:55.981Z,15.90
2022-10-02T03:39:25.586Z,15.90
2022-10-02T03:41:54.634Z,15.80
2022-10-02T03:44:24.039Z,15.90
2022-10-02T03:46:52.025Z,15.90
2022-10-02T03:49:20.021Z,15.90
2022-10-02T03:51:47.993Z,15.80
2022-10-02T03:54:18.900Z,15.80
2022-10-02T03:56:55.590Z,15.80
2022-10-02T03:59:41.084Z,15.90
2022-10-02T04:02:17.819Z,15.80
2022-10-02T04:04:50.537Z,15.80
2022-10-02T04:07:24.469Z,15.80
2022-10-02T04:10:02.059Z,15.90
2022-10-02T04:12:35.804Z,15.70
2022-10-02T04:15:15.884Z,15.70
2022-10-02T04:17:48.993Z,15.70
2022-10-02T04:20:21.401Z,15.70
2022-10-02T04:22:57.507Z,15.80
2022-10-02T04:25:28.904Z,15.60
2022-10-02T04:28:02.581Z,15.60
2022-10-02T04:30:32.132Z,15.60
2022-10-02T04:33:11.797Z,15.50
2022-10-02T04:35:47.437Z,15.50
2022-10-02T04:38:35.551Z,15.50
2022-10-02T04:41:35.228Z,15.50
2022-10-02T04:44:16.280Z,15.50
2022-10-02T04:47:08.333Z,15.50
2022-10-02T04:49:59.965Z,15.50
2022-10-02T04:52:46.478Z,15.40
2022-10-02T04:55:31.492Z,15.40
2022-10-02T04:58:18.497Z,15.50
2022-10-02T05:00:49.868Z,15.40
2022-10-02T05:03:33.116Z,15.50
2022-10-02T05:06:18.189Z,15.40
2022-10-02T05:09:04.833Z,15.40
2022-10-02T05:11:53.039Z,15.40
2022-10-02T05:14:55.069Z,15.40
2022-10-02T05:17:47.261Z,15.30
2022-10-02T05:20:41.274Z,15.30
2022-10-02T05:23:22.411Z,15.30
2022-10-02T05:26:18.796Z,15.40
2022-10-02T05:29:02.733Z,15.40
2022-10-02T05:31:46.653Z,15.50
2022-10-02T05:34:32.609Z,15.50
2022-10-02T05:37:15.113Z,15.40
2022-10-02T05:39:52.727Z,15.50
2022-10-02T05:42:28.644Z,15.50
2022-10-02T05:45:04.110Z,15.50
2022-10-02T05:47:35.952Z,15.50
2022-10-02T05:50:15.353Z,15.60
2022-10-02T05:52:51.784Z,15.60
2022-10-02T05:55:24.924Z,15.60
2022-10-02T05:57:59.126Z,15.60
2022-10-02T06:00:33.730Z,15.70
2022-10-02T06:03:12.297Z,15.60
2022-10-02T06:05:50.508Z,15.70
2022-10-02T06:08:27.498Z,15.60
2022-10-02T06:11:01.048Z,15.50
2022-10-02T06:13:35.640Z,15.60
2022-10-02T06:16:11.410Z,15.50
2022-10-02T06:18:46.660Z,15.60
2022-10-02T06:21:26.326Z,15.60
2022-10-02T06:23:59.586Z,15.60
2022-10-02T06:26:39.480Z,15.50
2022-10-02T06:29:18.253Z,15.60
2022-10-02T06:31:53.986Z,15.60
2022-10-02T06:34:22.350Z,15.60
2022-10-02T06:37:12.743Z,15.60
2022-10-02T06:39:58.981Z,15.70
2022-10-02T06:42:39.468Z,15.70
2022-10-02T06:45:17.113Z,15.70
2022-10-02T06:48:06.567Z,15.70
2022-10-02T06:50:49.309Z,15.80
2022-10-02T06:53:34.213Z,15.80
2022-10-02T06:56:17.295Z,15.80
2022-10-02T06:58:57.291Z,15.80
2022-10-02T07:01:38.641Z,15.80
2022-10-02T07:04:42.292Z,15.90
2022-10-02T07:07:30.837Z,15.90
2022-10-02T07:10:15.489Z,16.00
2022-10-02T07:13:09.485Z,16.00
2022-10-02T07:16:08.978Z,16.10
2022-10-02T07:18:53.940Z,16.10
2022-10-02T07:21:32.942Z,16.20
2022-10-02T07:24:20.668Z,16.20
2022-10-02T07:26:53.574Z,16.20
2022-10-02T07:29:35.937Z,16.20
2022-10-02T07:32:24.074Z,16.30
2022-10-02T07:35:03.160Z,16.30
2022-10-02T07:37:42.434Z,16.40
2022-10-02T07:40:30.021Z,16.40
2022-10-02T07:43:13.701Z,16.40
2022-10-02T07:45:55.752Z,16.40
2022-10-02T07:48:36.003Z,16.50
2022-10-02T07:51:33.377Z,16.50
2022-10-02T07:54:15.884Z,16.50
2022-10-02T07:56:46.735Z,16.60
2022-10-02T07:59:17.836Z,16.70
2022-10-02T08:01:50.355Z,16.60
2022-10-02T08:04:23.264Z,16.70
2022-10-02T08:06:58.472Z,16.80
2022-10-02T08:09:33.809Z,16.90
2022-10-02T08:12:09.289Z,16.80
2022-10-02T08:14:41.543Z,16.90
2022-10-02T08:17:27.992Z,17.00
2022-10-02T08:20:03.252Z,16.90
2022-10-02T08:22:35.945Z,16.90
2022-10-02T08:25:15.252Z,17.10
2022-10-02T08:27:53.149Z,17.20
2022-10-02T08:30:23.549Z,17.10
2022-10-02T08:32:54.734Z,17.10
2022-10-02T08:35:27.821Z,17.10
2022-10-02T08:38:12.798Z,17.20
2022-10-02T08:41:12.463Z,17.20
2022-10-02T08:44:16.793Z,17.30
2022-10-02T08:47:14.001Z,17.30
2022-10-02T08:50:15.937Z,17.40
2022-10-02T08:53:22.176Z,17.40
2022-10-02T08:56:06.463Z,17.40
2022-10-02T08:59:07.665Z,17.50
2022-10-02T09:02:02.027Z,17.50
2022-10-02T09:05:09.865Z,17.40
2022-10-02T09:11:07.172Z,17.50
2022-10-02T09:14:15.995Z,17.40
2022-10-02T09:17:06.159Z,17.40
2022-10-02T09:19:46.370Z,17.40
2022-10-02T09:22:37.376Z,17.30
2022-10-02T09:25:25.018Z,17.30
2022-10-02T09:28:30.610Z,17.30
2022-10-02T09:31:31.947Z,17.40
2022-10-02T09:34:24.148Z,17.40
2022-10-02T09:37:24.889Z,17.60
2022-10-02T09:40:32.942Z,17.70
2022-10-02T09:43:25.851Z,17.70
2022-10-02T09:46:33.846Z,17.60
2022-10-02T09:49:34.695Z,17.60
2022-10-02T09:52:26.952Z,17.60
2022-10-02T09:55:30.303Z,17.80
2022-10-02T09:58:23.454Z,17.90
2022-10-02T10:01:23.496Z,18.00
2022-10-02T10:04:24.265Z,18.00
2022-10-02T10:07:14.586Z,17.90
2022-10-02T10:10:19.511Z,18.00
2022-10-02T10:13:17.602Z,18.10
2022-10-02T10:16:20.175Z,18.10
2022-10-02T10:19:51.270Z,18.20
2022-10-02T10:22:55.324Z,18.20
2022-10-02T10:25:50.345Z,18.20
2022-10-02T10:28:57.576Z,18.20
2022-10-02T10:31:54.803Z,18.20
2022-10-02T10:34:57.206Z,18.30
2022-10-02T10:38:02.892Z,18.40
2022-10-02T10:40:43.814Z,18.40
2022-10-02T10:43:45.114Z,18.60
2022-10-02T10:46:55.531Z,18.50
2022-10-02T10:50:04.093Z,18.40
2022-10-02T10:52:57.496Z,18.40
2022-10-02T10:55:46.281Z,18.30
2022-10-02T10:58:21.651Z,18.20
2022-10-02T11:01:07.055Z,18.20
2022-10-02T11:04:00.194Z,18.10
2022-10-02T11:06:51.330Z,18.10
2022-10-02T11:09:55.678Z,18.20
2022-10-02T11:12:58.226Z,18.20
2022-10-02T11:15:48.292Z,18.30
2022-10-02T11:18:38.385Z,18.40
2022-10-02T11:21:29.532Z,18.40
2022-10-02T11:24:11.172Z,18.40
2022-10-02T11:27:09.455Z,18.40
2022-10-02T11:30:20.684Z,18.40
2022-10-02T11:33:19.222Z,18.30
2022-10-02T11:36:29.138Z,18.30
2022-10-02T11:39:28.492Z,18.30
2022-10-02T11:42:33.418Z,18.40
2022-10-02T11:45:23.124Z,18.50
2022-10-02T11:48:24.305Z,18.50
2022-10-02T11:51:13.911Z,18.70
2022-10-02T11:54:20.346Z,18.70
2022-10-02T11:57:03.403Z,18.80
2022-10-02T11:59:57.547Z,18.90
2022-10-02T12:02:36.074Z,19.10
2022-10-02T12:05:21.734Z,19.20
2022-10-02T12:08:01.659Z,19.50
2022-10-02T12:10:41.396Z,19.40
2022-10-02T12:13:29.850Z,19.30
2022-10-02T12:16:06.902Z,19.10
2022-10-02T12:18:51.910Z,18.90
2022-10-02T12:21:52.454Z,19.00
2022-10-02T12:24:47.896Z,18.90
2022-10-02T12:27:26.793Z,18.70
2022-10-02T12:30:04.207Z,18.60
2022-10-02T12:32:49.873Z,18.60
2022-10-02T12:35:44.342Z,18.50
2022-10-02T12:38:26.752Z,18.50
2022-10-02T12:41:02.425Z,18.30
2022-10-02T12:43:55.577Z,18.30
2022-10-02T12:46:59.770Z,18.30
2022-10-02T12:49:43.056Z,18.30
2022-10-02T12:52:40.583Z,18.30
2022-10-02T12:55:38.145Z,18.20
2022-10-02T12:58:14.874Z,18.30
2022-10-02T13:01:07.068Z,18.10
2022-10-02T13:04:17.413Z,18.20
2022-10-02T13:07:19.722Z,18.20
2022-10-02T13:09:56.088Z,18.10
2022-10-02T13:12:41.418Z,18.10
2022-10-02T13:15:37.378Z,18.10
2022-10-02T13:18:22.776Z,18.00
2022-10-02T13:21:04.086Z,18.00
2022-10-02T13:23:42.007Z,18.00
2022-10-02T13:26:21.239Z,18.00
2022-10-02T13:29:18.521Z,18.00
2022-10-02T13:32:05.535Z,17.80
2022-10-02T13:34:46.067Z,17.80
2022-10-02T13:37:24.919Z,17.70
2022-10-02T13:40:14.560Z,17.80
2022-10-02T13:43:05.994Z,17.90
2022-10-02T13:45:42.189Z,17.90
2022-10-02T13:48:19.137Z,17.90
2022-10-02T13:50:53.610Z,17.80
2022-10-02T13:53:49.418Z,18.00
2022-10-02T13:56:29.862Z,18.10
2022-10-02T13:59:37.284Z,18.20
2022-10-02T14:02:21.133Z,18.30
2022-10-02T14:05:00.142Z,18.20
2022-10-02T14:07:44.973Z,18.20
2022-10-02T14:10:28.964Z,18.10
2022-10-02T14:13:14.600Z,18.10
2022-10-02T14:15:57.765Z,18.00
2022-10-02T14:18:38.545Z,17.90
2022-10-02T14:21:18.344Z,17.90
2022-10-02T14:24:04.990Z,17.80
2022-10-02T14:26:45.816Z,17.80
2022-10-02T14:29:29.061Z,17.70
2022-10-02T14:32:42.822Z,17.60
2022-10-02T14:35:36.026Z,17.40
2022-10-02T14:38:31.466Z,17.50
2022-10-02T14:41:03.853Z,17.60
2022-10-02T14:43:57.921Z,17.60
2022-10-02T14:46:50.897Z,17.50
2022-10-02T14:49:32.397Z,17.50
2022-10-02T14:52:22.663Z,17.70
2022-10-02T14:55:21.336Z,17.70
2022-10-02T14:58:14.694Z,17.80
2022-10-02T15:00:56.645Z,17.80
2022-10-02T15:03:56.977Z,17.90
2022-10-02T15:06:37.504Z,18.00
2022-10-02T15:09:14.546Z,18.10
2022-10-02T15:11:56.583Z,17.90
2022-10-02T15:14:35.633Z,18.10
2022-10-02T15:17:27.151Z,18.00
2022-10-02T15:20:04.170Z,18.00
2022-10-02T15:22:38.569Z,18.10
2022-10-02T15:25:22.078Z,18.20
2022-10-02T15:28:24.132Z,18.20
2022-10-02T15:30:57.552Z,18.30
2022-10-02T15:33:34.413Z,18.40
2022-10-02T15:36:23.643Z,18.20
2022-10-02T15:39:17.350Z,18.20
2022-10-02T15:41:50.884Z,18.10
2022-10-02T15:44:33.353Z,18.10
2022-10-02T15:47:13.797Z,18.00
2022-10-02T15:49:58.495Z,18.00
2022-10-02T15:52:36.099Z,18.20
2022-10-02T15:55:19.858Z,18.20
2022-10-02T15:58:08.505Z,18.20
2022-10-02T16:01:00.898Z,18.10
2022-10-02T16:03:38.295Z,18.00
2022-10-02T16:06:16.347Z,18.00
2022-10-02T16:09:17.606Z,17.90
2022-10-02T16:12:10.003Z,17.80
2022-10-02T16:14:48.716Z,17.80
2022-10-02T16:17:40.649Z,17.80
2022-10-02T16:20:24.084Z,17.70
2022-10-02T16:23:07.524Z,17.60
2022-10-02T16:25:51.390Z,17.60
2022-10-02T16:28:29.255Z,17.70
2022-10-02T16:31:15.483Z,17.70
2022-10-02T16:33:52.742Z,17.70
2022-10-02T16:36:32.010Z,17.80
2022-10-02T16:39:16.968Z,17.60
2022-10-02T16:42:01.771Z,17.60
2022-10-02T16:44:52.869Z,17.70
2022-10-02T16:47:29.689Z,17.50
2022-10-02T16:50:03.599Z,17.50
2022-10-02T16:52:39.066Z,17.30
2022-10-02T16:55:19.681Z,17.20
2022-10-02T16:57:59.758Z,17.20
2022-10-02T17:00:32.245Z,17.10
2022-10-02T17:03:11.897Z,17.10
2022-10-02T17:05:49.702Z,17.20
2022-10-02T17:08:29.441Z,17.10
2022-10-02T17:11:09.942Z,16.90
2022-10-02T17:13:49.322Z,16.70
2022-10-02T17:16:24.287Z,16.60
2022-10-02T17:18:57.536Z,16.50
2022-10-02T17:21:30.697Z,16.60
2022-10-02T17:24:31.324Z,16.50
2022-10-02T17:27:10.328Z,16.50
2022-10-02T17:29:45.740Z,16.40
2022-10-02T17:32:14.282Z,16.30
2022-10-02T17:34:51.231Z,16.30
2022-10-02T17:37:47.479Z,16.30
2022-10-02T17:40:21.040Z,16.20
2022-10-02T17:42:54.887Z,16.20
2022-10-02T17:45:32.948Z,16.10
2022-10-02T17:48:22.167Z,16.10
2022-10-02T17:54:47.020Z,16.00
2022-10-02T17:57:36.838Z,16.10
2022-10-02T18:00:15.419Z,16.10
2022-10-02T18:03:20.556Z,16.00
2022-10-02T18:05:59.581Z,16.00
2022-10-02T18:08:59.650Z,15.90
2022-10-02T18:11:52.204Z,15.90
2022-10-02T18:14:29.232Z,15.90
2022-10-02T18:17:11.894Z,15.90
2022-10-02T18:19:56.208Z,15.90
2022-10-02T18:22:39.997Z,15.90
2022-10-02T18:25:51.120Z,15.90
2022-10-02T18:28:37.608Z,15.90
2022-10-02T18:31:44.297Z,15.70
2022-10-02T18:34:43.607Z,15.80
2022-10-02T18:37:33.918Z,15.70
2022-10-02T18:40:17.413Z,15.80
2022-10-02T18:43:02.339Z,15.70
2022-10-02T18:45:49.485Z,15.70
2022-10-02T18:48:46.381Z,15.70
2022-10-02T18:51:32.934Z,15.70
2022-10-02T18:54:17.574Z,15.60
2022-10-02T18:56:53.424Z,15.60
2022-10-02T18:59:34.377Z,15.60
2022-10-02T19:02:16.683Z,15.50
2022-10-02T19:05:13.207Z,15.50
2022-10-02T19:07:44.767Z,15.50
2022-10-02T19:10:40.322Z,15.50
2022-10-02T19:13:18.304Z,15.50
2022-10-02T19:15:48.730Z,15.50
2022-10-02T19:18:20.511Z,15.40
2022-10-02T19:20:56.187Z,15.30
2022-10-02T19:23:29.178Z,15.30
2022-10-02T19:26:00.717Z,15.30
2022-10-02T19:28:31.064Z,15.40
2022-10-02T19:31:02.207Z,15.30
2022-10-02T19:33:43.516Z,15.20
2022-10-02T19:36:23.161Z,15.30
2022-10-02T19:38:54.626Z,15.30
2022-10-02T19:41:23.738Z,15.20
2022-10-02T19:43:57.570Z,15.20
2022-10-02T19:46:37.025Z,15.20
2022-10-02T19:49:08.245Z,15.20
2022-10-02T19:51:44.768Z,15.20
2022-10-02T19:54:18.489Z,15.20
2022-10-02T19:56:47.187Z,15.20
2022-10-02T19:59:19.487Z,15.00
2022-10-02T20:01:51.253Z,15.00
2022-10-02T20:04:23.692Z,15.10
2022-10-02T20:06:56.441Z,15.00
2022-10-02T20:09:30.878Z,15.00
2022-10-02T20:12:03.415Z,15.00
2022-10-02T20:14:36.030Z,14.90
2022-10-02T20:17:09.275Z,14.90
2022-10-02T20:19:43.816Z,14.90
2022-10-02T20:22:25.934Z,14.90
2022-10-02T20:24:58.494Z,14.70
2022-10-02T20:27:37.191Z,14.50
2022-10-02T20:30:08.144Z,14.50
2022-10-02T20:32:40.401Z,14.60
2022-10-02T20:35:15.943Z,14.60
2022-10-02T20:37:46.660Z,14.60
2022-10-02T20:40:19.175Z,14.50
2022-10-02T20:42:55.252Z,14.60
2022-10-02T20:45:28.143Z,14.50
2022-10-02T20:48:26.229Z,14.60
2022-10-02T20:51:06.656Z,14.60
2022-10-02T20:54:04.498Z,14.50
2022-10-02T20:57:11.381Z,14.40
2022-10-02T21:00:10.249Z,14.40
2022-10-02T21:03:10.188Z,14.40
2022-10-02T21:06:17.958Z,14.40
2022-10-02T21:09:14.617Z,14.30
2022-10-02T21:12:00.873Z,14.30
2022-10-02T21:14:54.185Z,14.30
2022-10-02T21:18:06.880Z,14.30
2022-10-02T21:21:00.217Z,14.20
2022-10-02T21:23:56.031Z,14.30
2022-10-02T21:26:50.572Z,14.10
2022-10-02T21:29:44.505Z,14.00
2022-10-02T21:32:38.369Z,14.00
2022-10-02T21:35:16.727Z,13.90
2022-10-02T21:38:01.373Z,13.90
2022-10-02T21:40:57.823Z,13.80
2022-10-02T21:44:17.935Z,13.80
2022-10-02T21:47:07.226Z,13.80
2022-10-02T21:50:12.890Z,13.80
2022-10-02T21:53:16.720Z,13.70
2022-10-02T21:56:34.983Z,13.70
2022-10-02T21:59:26.691Z,13.60
2022-10-02T22:02:21.272Z,13.60
2022-10-02T22:05:31.071Z,13.50
2022-10-02T22:08:08.391Z,13.50
2022-10-02T22:10:44.242Z,13.40
2022-10-02T22:13:26.394Z,13.40
2022-10-02T22:16:09.168Z,13.40
2022-10-02T22:18:50.016Z,13.40
2022-10-02T22:21:41.102Z,13.30
2022-10-02T22:24:25.828Z,13.30
2022-10-02T22:27:18.926Z,13.30
2022-10-02T22:29:50.351Z,13.30
2022-10-02T22:33:04.547Z,13.30
2022-10-02T22:35:42.874Z,13.30
2022-10-02T22:38:15.669Z,13.30
2022-10-02T22:40:51.386Z,13.20
2022-10-02T22:43:29.889Z,13.20
2022-10-02T22:46:05.246Z,13.10
2022-10-02T22:48:40.095Z,13.10
2022-10-02T22:51:17.848Z,13.00
2022-10-02T22:53:50.778Z,13.00
2022-10-02T22:56:28.669Z,12.90
2022-10-02T22:59:03.436Z,12.90
2022-10-02T23:01:41.873Z,12.90
2022-10-02T23:04:22.440Z,12.80
2022-10-02T23:06:54.949Z,12.80
2022-10-02T23:09:27.986Z,12.70
2022-10-02T23:12:06.002Z,12.70
2022-10-02T23:14:43.402Z,12.70
2022-10-02T23:17:21.988Z,12.60
2022-10-02T23:19:55.843Z,12.60
2022-10-02T23:22:29.223Z,12.50
2022-10-02T23:25:04.510Z,12.40
2022-10-02T23:27:45.825Z,12.40
2022-10-02T23:30:20.340Z,12.60
2022-10-02T23:32:55.027Z,12.40
2022-10-02T23:35:30.090Z,12.40
2022-10-02T23:38:07.008Z,12.50
2022-10-02T23:40:55.820Z,12.40
2022-10-02T23:43:29.964Z,12.30
2022-10-02T23:46:02.355Z,12.30
2022-10-02T23:48:33.584Z,12.30
2022-10-02T23:51:15.737Z,12.30
2022-10-02T23:54:04.008Z,12.30
2022-10-02T23:56:55.492Z,12.40
2022-10-02T23:59:39.883Z,12.30
